AirNav   Everest Fuels
 
 1320 users online  

6KY1 Spring View Hospital Heliport
Lebanon, Kentucky, USA

GOING TO LEBANON?


FAA INFORMATION EFFECTIVE 21 MAY 2020

Location

FAA Identifier: 6KY1
Lat/Long: 37-34-08.6000N 085-15-44.6000W
37-34.143333N 085-15.743333W
37.5690556,-85.2623889
(estimated)
Elevation: 810 ft. / 247 m (estimated)
From city: 10 miles N of LEBANON, KY
Time zone: UTC -4 (UTC -5 during Standard Time)
Zip code: 40033

Heliport Operations

Heliport use: Private use. Permission required prior to landing
Activation date: 07/2010
Control tower: no
ARTCC: INDIANAPOLIS CENTER
FSS: LOUISVILLE FLIGHT SERVICE STATION
Attendance: CONTINUOUS
Wind indicator: yes
Segmented circle: no
Lights: SS-SR

Heliport Communications

WX AWOS-3P at 6I2 (4 nm N): 119.725 (859-336-0340)
WX AWOS-3 at AAS (13 nm S): 121.125 (270-789-1985)
WX AWOS-3 at BRY (19 nm NW): 119.925 (502-348-1867)

Nearby radio navigation aids

VOR radial/distance  VOR name  Freq  Var
EWOr100/20.0NEW HOPE VOR/DME110.8001E
IIUr154/35.4LOUISVILLE VORTAC114.8001E
FTKr122/39.3FORT KNOX VOR/DME109.6001W

 
NDB name  Hdg/Dist  Freq  Var  ID
GOODALL272/23.731103WDVK -.. ...- -.-

Heliport Services

Runway Information

Helipad H1

Dimensions: 50 x 50 ft. / 15 x 15 m
Surface: concrete
Runway edge lights: PERI
Latitude: 37-34.143333N
Longitude: 085-15.743333W
Elevation: 810.0 ft.
Traffic pattern: leftleft

Heliport Ownership and Management from official FAA records

Ownership: Privately-owned
Owner: SPRING VIEW HOSPITAL
320 LORETTO RD
LEBANON, KY 40033
Phone 270-682-3161
Manager: BRYAN WALKER
320 LORETTO RD
LEBANON, KY 40033
Phone (270) 250-5285

Additional Remarks

OWNER DESIRES ARPT NOT BE CHARTED.
FOR CD CTC INDIANAPOLIS ARTCC AT 317-247-2411.

Instrument Procedures

There are no published instrument procedures at 6KY1.

Some nearby airports with instrument procedures:

6I2 - Lebanon Springfield Airport-George Hoerter Field (4 nm N)
KAAS - Taylor County Airport (13 nm S)
KBRY - Samuels Field Airport (19 nm NW)
KDVK - Stuart Powell Field Airport (23 nm E)
KEKX - Addington Field Airport (32 nm W)
 
Loc | Ops | Rwys | IFR | FBO | Links
Com | Nav | Svcs | Stats | Notes
Aerial photo
No photo
 
Sectional chart

 
Airport distance calculator
Flying to Spring View Hospital Heliport? Find the distance to fly.

From to 6KY1

Sunrise and sunset
Times for 02-Jun-2020
 Local
(UTC-4)
 Zulu
(UTC)
Morning civil twilight05:5109:51
Sunrise06:2210:22
Sunset20:5700:57
Evening civil twilight21:2701:27

Current date and time
Zulu (UTC)  02-Jun-2020 14:53:46
Local (UTC-4)  02-Jun-2020 10:53:46
 
METAR
K6I2 
4nm N 
021425Z AUTO 20011G14KT 10SM CLR 25/18 A3015 RMK AO2
KAAS 
13nm S 
021435Z AUTO 24010G15KT 10SM CLR 25/16 A3021 RMK AO1
KBRY 
19nm NW 
021435Z AUTO 22005KT 10SM CLR 25/16 A3013 RMK AO1
TAF
KFTK 
38nm NW 
020900Z 0209/0315 VRB06KT 9999 SCT070 QNH3011INS BECMG 0215/0216 24010G15KT 9999 FEW085 QNH3000INS BECMG 0307/0308 VRB06KT 9999 FEW130 QNH2995INS TX29/0221Z TN17/0209Z
KLEX 
42nm NE 
021120Z 0212/0312 19006KT P6SM BKN200 FM021330 22010KT P6SM SCT250 FM021500 23013G20KT P6SM FEW040 SCT100 FM022300 22009KT P6SM BKN250
KSDF 
43nm NW 
021120Z 0212/0318 19006KT P6SM BKN200 FM021400 21010KT P6SM BKN200 FM021600 23012G19KT P6SM SCT100 FM030000 23008KT P6SM SCT250
KSME 
44nm SE 
021133Z 0212/0312 VRB03KT P6SM FEW100 FM021400 23007KT P6SM FEW200 FM030200 VRB04KT P6SM FEW250
NOTAMs
Click for the latest NOTAMs
NOTAMs are issued by the DoD/FAA and will open in a separate window not controlled by AirNav.

 

 
 

Would you like to see your business listed on this page?

 If your business provides an interesting product or service to pilots, flight crews, aircraft, or users of the Spring View Hospital Heliport, you should consider listing it here.  To start the listing process, click on the button below
 
Add a business
 

Other Pages about Spring View Hospital Heliport

Update a link
 
Copyright © AirNav, LLC. All rights reserved. Privacy Policy  Contact